EGNJ

Humberside Airport

Airport
ICAO code
EGNJ
IATA Code
HUY
Summary
ICAO Region
EUR
ICAO Territory
Location

Kirmington, North Lincolnshire, England

Serving
Hull
Elevation
121 ft
Coordinates
53° 34' 32" N , 0° 20' 58" W
KCC
Metar
EGNJ 221650Z 29011KT 9999 FEW012 SCT046 07/04 Q0976

Description

Humberside Airport is 10 nm west of Grimsby and around 24 km from both Kingston upon Hull (accessible via the Humber road bridge) and Scunthorpe. It is a small domestic and international airport and also a base for helicopters flying to offshore gas platforms in the North Sea.

Climatology

Temperate Marine climate/Oceanic climate (Köppen climate classification Cfb). Moderately cool summer and comparatively warm winter with a temperature range of only 14°C. Prevailing south-westerly winds from the Atlantic Ocean.

Runways

Designator Length Width Surface Rops
9/27 1054 30 ASP Yes/Yes
3/21 2196 45 ASP Yes/Yes

Airport map

Aerial View

Airport accidents

SKYbrary Partners:

Safety knowledge contributed by: